sensor_id;sensor_type;location;lat;lon;timestamp;P1;durP1;ratioP1;P2;durP2;ratioP2
70026;SDS011;57506;50.092;15.804;2022-09-02T00:02:19;5.28;;;2.20;;
70026;SDS011;57506;50.092;15.804;2022-09-02T00:04:46;5.47;;;2.07;;
70026;SDS011;57506;50.092;15.804;2022-09-02T00:07:11;4.97;;;2.20;;
70026;SDS011;57506;50.092;15.804;2022-09-02T00:09:38;4.43;;;2.13;;
70026;SDS011;57506;50.092;15.804;2022-09-02T00:12:05;4.45;;;2.00;;
70026;SDS011;57506;50.092;15.804;2022-09-02T00:14:33;4.43;;;2.10;;
70026;SDS011;57506;50.092;15.804;2022-09-02T00:16:59;5.53;;;2.40;;
70026;SDS011;57506;50.092;15.804;2022-09-02T00:19:27;6.77;;;2.27;;
70026;SDS011;57506;50.092;15.804;2022-09-02T00:21:53;5.13;;;2.20;;
70026;SDS011;57506;50.092;15.804;2022-09-02T00:24:21;5.18;;;2.42;;
70026;SDS011;57506;50.092;15.804;2022-09-02T00:26:47;5.45;;;2.28;;
70026;SDS011;57506;50.092;15.804;2022-09-02T00:29:14;5.60;;;2.33;;
70026;SDS011;57506;50.092;15.804;2022-09-02T00:31:41;6.83;;;2.70;;
70026;SDS011;57506;50.092;15.804;2022-09-02T00:34:08;8.05;;;2.60;;
70026;SDS011;57506;50.092;15.804;2022-09-02T00:36:34;4.57;;;2.50;;
70026;SDS011;57506;50.092;15.804;2022-09-02T00:39:01;5.95;;;2.72;;
70026;SDS011;57506;50.092;15.804;2022-09-02T00:41:28;4.80;;;2.03;;
70026;SDS011;57506;50.092;15.804;2022-09-02T00:46:25;4.82;;;2.35;;
70026;SDS011;57506;50.092;15.804;2022-09-02T00:49:04;5.18;;;2.58;;
70026;SDS011;57506;50.092;15.804;2022-09-02T00:51:52;8.48;;;2.47;;
70026;SDS011;57506;50.092;15.804;2022-09-02T00:54:26;5.57;;;2.50;;
70026;SDS011;57506;50.092;15.804;2022-09-02T00:56:53;6.80;;;2.47;;
70026;SDS011;57506;50.092;15.804;2022-09-02T00:59:26;4.68;;;2.20;;
70026;SDS011;57506;50.092;15.804;2022-09-02T01:02:00;5.47;;;2.00;;
70026;SDS011;57506;50.092;15.804;2022-09-02T01:04:25;5.20;;;2.27;;
70026;SDS011;57506;50.092;15.804;2022-09-02T01:06:51;5.00;;;2.33;;
70026;SDS011;57506;50.092;15.804;2022-09-02T01:09:19;5.78;;;2.80;;
70026;SDS011;57506;50.092;15.804;2022-09-02T01:11:46;4.70;;;2.10;;
70026;SDS011;57506;50.092;15.804;2022-09-02T01:14:16;4.80;;;2.22;;
70026;SDS011;57506;50.092;15.804;2022-09-02T01:16:46;6.18;;;2.65;;
70026;SDS011;57506;50.092;15.804;2022-09-02T01:19:27;4.72;;;2.15;;
70026;SDS011;57506;50.092;15.804;2022-09-02T01:21:56;5.93;;;2.60;;
70026;SDS011;57506;50.092;15.804;2022-09-02T01:24:24;5.43;;;2.27;;
70026;SDS011;57506;50.092;15.804;2022-09-02T01:26:54;5.30;;;2.38;;
70026;SDS011;57506;50.092;15.804;2022-09-02T01:29:23;4.80;;;2.33;;
70026;SDS011;57506;50.092;15.804;2022-09-02T01:31:50;4.45;;;2.03;;
70026;SDS011;57506;50.092;15.804;2022-09-02T01:34:17;4.45;;;2.10;;
70026;SDS011;57506;50.092;15.804;2022-09-02T01:36:43;4.33;;;2.00;;
70026;SDS011;57506;50.092;15.804;2022-09-02T01:39:10;6.13;;;2.00;;
70026;SDS011;57506;50.092;15.804;2022-09-02T01:41:37;5.20;;;1.80;;
70026;SDS011;57506;50.092;15.804;2022-09-02T01:44:05;5.18;;;2.15;;
70026;SDS011;57506;50.092;15.804;2022-09-02T01:46:31;4.68;;;2.40;;
70026;SDS011;57506;50.092;15.804;2022-09-02T01:48:57;4.37;;;2.07;;
70026;SDS011;57506;50.092;15.804;2022-09-02T01:51:23;8.48;;;2.85;;
70026;SDS011;57506;50.092;15.804;2022-09-02T01:53:48;6.83;;;3.60;;
70026;SDS011;57506;50.092;15.804;2022-09-02T01:56:14;7.45;;;3.42;;
70026;SDS011;57506;50.092;15.804;2022-09-02T01:58:45;6.00;;;2.80;;
70026;SDS011;57506;50.092;15.804;2022-09-02T02:01:11;6.00;;;2.60;;
70026;SDS011;57506;50.092;15.804;2022-09-02T02:03:37;5.75;;;2.33;;
70026;SDS011;57506;50.092;15.804;2022-09-02T02:06:08;6.40;;;2.30;;
70026;SDS011;57506;50.092;15.804;2022-09-02T02:08:35;6.28;;;2.67;;
70026;SDS011;57506;50.092;15.804;2022-09-02T02:11:02;4.80;;;2.60;;
70026;SDS011;57506;50.092;15.804;2022-09-02T02:13:28;5.80;;;2.80;;
70026;SDS011;57506;50.092;15.804;2022-09-02T02:15:55;6.32;;;2.92;;
70026;SDS011;57506;50.092;15.804;2022-09-02T02:18:20;4.63;;;2.33;;
70026;SDS011;57506;50.092;15.804;2022-09-02T02:20:46;5.80;;;2.63;;
70026;SDS011;57506;50.092;15.804;2022-09-02T02:23:11;5.97;;;2.60;;
70026;SDS011;57506;50.092;15.804;2022-09-02T02:25:37;7.97;;;2.70;;
70026;SDS011;57506;50.092;15.804;2022-09-02T02:28:03;4.70;;;2.33;;
70026;SDS011;57506;50.092;15.804;2022-09-02T02:30:29;4.27;;;2.27;;
70026;SDS011;57506;50.092;15.804;2022-09-02T02:32:55;4.97;;;2.15;;
70026;SDS011;57506;50.092;15.804;2022-09-02T02:35:21;4.97;;;2.00;;
70026;SDS011;57506;50.092;15.804;2022-09-02T02:37:47;5.40;;;2.10;;
70026;SDS011;57506;50.092;15.804;2022-09-02T02:40:16;7.57;;;2.45;;
70026;SDS011;57506;50.092;15.804;2022-09-02T02:42:44;4.63;;;2.58;;
70026;SDS011;57506;50.092;15.804;2022-09-02T02:45:10;4.97;;;2.70;;
70026;SDS011;57506;50.092;15.804;2022-09-02T02:47:40;5.85;;;2.70;;
70026;SDS011;57506;50.092;15.804;2022-09-02T02:50:08;5.35;;;2.50;;
70026;SDS011;57506;50.092;15.804;2022-09-02T02:52:37;3.00;;;1.30;;
70026;SDS011;57506;50.092;15.804;2022-09-02T02:55:04;4.10;;;1.98;;
70026;SDS011;57506;50.092;15.804;2022-09-02T02:57:33;16.63;;;2.60;;
70026;SDS011;57506;50.092;15.804;2022-09-02T03:05:06;6.82;;;3.00;;
70026;SDS011;57506;50.092;15.804;2022-09-02T03:07:33;5.35;;;2.97;;
70026;SDS011;57506;50.092;15.804;2022-09-02T03:09:58;5.30;;;3.20;;
70026;SDS011;57506;50.092;15.804;2022-09-02T03:12:24;5.50;;;3.25;;
70026;SDS011;57506;50.092;15.804;2022-09-02T03:14:50;5.80;;;3.53;;
70026;SDS011;57506;50.092;15.804;2022-09-02T03:17:17;5.30;;;3.42;;
70026;SDS011;57506;50.092;15.804;2022-09-02T03:19:42;9.13;;;3.90;;
70026;SDS011;57506;50.092;15.804;2022-09-02T03:22:08;7.13;;;3.37;;
70026;SDS011;57506;50.092;15.804;2022-09-02T03:24:36;6.05;;;3.13;;
70026;SDS011;57506;50.092;15.804;2022-09-02T03:27:02;5.73;;;3.33;;
70026;SDS011;57506;50.092;15.804;2022-09-02T03:29:28;5.43;;;2.42;;
70026;SDS011;57506;50.092;15.804;2022-09-02T03:31:56;6.15;;;3.05;;
70026;SDS011;57506;50.092;15.804;2022-09-02T03:34:22;5.50;;;2.30;;
70026;SDS011;57506;50.092;15.804;2022-09-02T03:36:47;7.47;;;2.90;;
70026;SDS011;57506;50.092;15.804;2022-09-02T03:39:13;6.00;;;2.70;;
70026;SDS011;57506;50.092;15.804;2022-09-02T03:41:38;6.63;;;3.00;;
70026;SDS011;57506;50.092;15.804;2022-09-02T03:44:07;5.32;;;2.80;;
70026;SDS011;57506;50.092;15.804;2022-09-02T03:46:34;4.67;;;2.50;;
70026;SDS011;57506;50.092;15.804;2022-09-02T03:49:00;4.68;;;2.58;;
70026;SDS011;57506;50.092;15.804;2022-09-02T03:51:26;4.90;;;2.65;;
70026;SDS011;57506;50.092;15.804;2022-09-02T03:53:52;4.50;;;2.20;;
70026;SDS011;57506;50.092;15.804;2022-09-02T03:56:18;6.05;;;2.55;;
70026;SDS011;57506;50.092;15.804;2022-09-02T03:58:46;5.55;;;3.13;;
70026;SDS011;57506;50.092;15.804;2022-09-02T04:01:18;5.45;;;2.90;;
70026;SDS011;57506;50.092;15.804;2022-09-02T04:03:47;6.80;;;2.70;;
70026;SDS011;57506;50.092;15.804;2022-09-02T04:06:14;6.70;;;2.73;;
70026;SDS011;57506;50.092;15.804;2022-09-02T04:08:42;7.18;;;3.10;;
70026;SDS011;57506;50.092;15.804;2022-09-02T04:11:11;5.88;;;2.80;;
70026;SDS011;57506;50.092;15.804;2022-09-02T04:13:40;5.47;;;3.08;;
70026;SDS011;57506;50.092;15.804;2022-09-02T04:16:10;5.67;;;3.17;;
70026;SDS011;57506;50.092;15.804;2022-09-02T04:18:38;5.43;;;3.00;;
70026;SDS011;57506;50.092;15.804;2022-09-02T04:21:09;5.00;;;2.83;;
70026;SDS011;57506;50.092;15.804;2022-09-02T04:23:34;6.30;;;2.83;;
70026;SDS011;57506;50.092;15.804;2022-09-02T04:26:04;5.70;;;3.15;;
70026;SDS011;57506;50.092;15.804;2022-09-02T04:28:31;6.43;;;3.08;;
70026;SDS011;57506;50.092;15.804;2022-09-02T04:30:57;5.53;;;2.87;;
70026;SDS011;57506;50.092;15.804;2022-09-02T04:33:23;6.38;;;3.70;;
70026;SDS011;57506;50.092;15.804;2022-09-02T04:35:48;7.63;;;3.77;;
70026;SDS011;57506;50.092;15.804;2022-09-02T04:38:15;7.53;;;3.20;;
70026;SDS011;57506;50.092;15.804;2022-09-02T04:40:42;9.57;;;3.60;;
70026;SDS011;57506;50.092;15.804;2022-09-02T04:43:08;8.25;;;4.00;;
70026;SDS011;57506;50.092;15.804;2022-09-02T04:45:34;7.90;;;3.40;;
70026;SDS011;57506;50.092;15.804;2022-09-02T04:48:04;6.83;;;3.10;;
70026;SDS011;57506;50.092;15.804;2022-09-02T04:50:29;8.48;;;3.50;;
70026;SDS011;57506;50.092;15.804;2022-09-02T04:52:54;6.87;;;3.73;;
70026;SDS011;57506;50.092;15.804;2022-09-02T04:55:20;6.47;;;4.03;;
70026;SDS011;57506;50.092;15.804;2022-09-02T04:57:46;8.05;;;4.00;;
70026;SDS011;57506;50.092;15.804;2022-09-02T05:00:11;10.40;;;4.30;;
70026;SDS011;57506;50.092;15.804;2022-09-02T05:02:37;9.18;;;4.20;;
70026;SDS011;57506;50.092;15.804;2022-09-02T05:07:34;5.95;;;3.72;;
70026;SDS011;57506;50.092;15.804;2022-09-02T05:10:02;6.55;;;4.15;;
70026;SDS011;57506;50.092;15.804;2022-09-02T05:12:30;8.27;;;4.65;;
70026;SDS011;57506;50.092;15.804;2022-09-02T05:14:56;8.75;;;5.22;;
70026;SDS011;57506;50.092;15.804;2022-09-02T05:17:25;9.73;;;6.53;;
70026;SDS011;57506;50.092;15.804;2022-09-02T05:19:52;11.48;;;6.40;;
70026;SDS011;57506;50.092;15.804;2022-09-02T05:22:17;12.40;;;6.82;;
70026;SDS011;57506;50.092;15.804;2022-09-02T05:24:44;8.48;;;5.72;;
70026;SDS011;57506;50.092;15.804;2022-09-02T05:27:10;10.30;;;6.18;;
70026;SDS011;57506;50.092;15.804;2022-09-02T05:29:37;11.27;;;6.50;;
70026;SDS011;57506;50.092;15.804;2022-09-02T05:32:03;9.85;;;6.25;;
70026;SDS011;57506;50.092;15.804;2022-09-02T05:34:29;9.90;;;6.18;;
70026;SDS011;57506;50.092;15.804;2022-09-02T05:36:55;11.40;;;6.20;;
70026;SDS011;57506;50.092;15.804;2022-09-02T05:39:21;10.87;;;6.43;;
70026;SDS011;57506;50.092;15.804;2022-09-02T05:41:46;10.63;;;6.25;;
70026;SDS011;57506;50.092;15.804;2022-09-02T05:44:12;10.17;;;6.47;;
70026;SDS011;57506;50.092;15.804;2022-09-02T05:46:37;9.93;;;6.78;;
70026;SDS011;57506;50.092;15.804;2022-09-02T05:49:03;11.33;;;5.73;;
70026;SDS011;57506;50.092;15.804;2022-09-02T05:51:31;9.90;;;6.22;;
70026;SDS011;57506;50.092;15.804;2022-09-02T05:53:59;11.48;;;6.43;;
70026;SDS011;57506;50.092;15.804;2022-09-02T05:56:25;9.13;;;6.13;;
70026;SDS011;57506;50.092;15.804;2022-09-02T05:58:54;8.80;;;5.40;;
70026;SDS011;57506;50.092;15.804;2022-09-02T06:01:21;8.40;;;5.30;;
70026;SDS011;57506;50.092;15.804;2022-09-02T06:03:47;6.65;;;4.13;;
70026;SDS011;57506;50.092;15.804;2022-09-02T06:06:12;8.73;;;4.17;;
70026;SDS011;57506;50.092;15.804;2022-09-02T06:08:38;8.68;;;3.70;;
70026;SDS011;57506;50.092;15.804;2022-09-02T06:11:06;9.47;;;4.30;;
70026;SDS011;57506;50.092;15.804;2022-09-02T06:13:34;8.27;;;4.20;;
70026;SDS011;57506;50.092;15.804;2022-09-02T06:16:02;8.25;;;4.40;;
70026;SDS011;57506;50.092;15.804;2022-09-02T06:18:28;8.07;;;4.18;;
70026;SDS011;57506;50.092;15.804;2022-09-02T06:20:53;9.33;;;4.67;;
70026;SDS011;57506;50.092;15.804;2022-09-02T06:23:19;8.10;;;4.13;;
70026;SDS011;57506;50.092;15.804;2022-09-02T06:25:46;7.20;;;3.67;;
70026;SDS011;57506;50.092;15.804;2022-09-02T06:28:13;6.53;;;3.55;;
70026;SDS011;57506;50.092;15.804;2022-09-02T06:30:40;7.97;;;3.60;;
70026;SDS011;57506;50.092;15.804;2022-09-02T06:33:07;6.18;;;3.38;;
70026;SDS011;57506;50.092;15.804;2022-09-02T06:35:37;10.57;;;4.03;;
70026;SDS011;57506;50.092;15.804;2022-09-02T06:38:06;10.13;;;3.47;;
70026;SDS011;57506;50.092;15.804;2022-09-02T06:40:32;7.93;;;2.92;;
70026;SDS011;57506;50.092;15.804;2022-09-02T06:42:58;6.22;;;3.20;;
70026;SDS011;57506;50.092;15.804;2022-09-02T06:45:23;6.80;;;3.13;;
70026;SDS011;57506;50.092;15.804;2022-09-02T06:47:49;5.83;;;3.10;;
70026;SDS011;57506;50.092;15.804;2022-09-02T06:50:15;7.57;;;3.03;;
70026;SDS011;57506;50.092;15.804;2022-09-02T06:52:41;8.18;;;3.20;;
70026;SDS011;57506;50.092;15.804;2022-09-02T06:55:07;5.77;;;2.90;;
70026;SDS011;57506;50.092;15.804;2022-09-02T06:57:34;6.18;;;2.70;;
70026;SDS011;57506;50.092;15.804;2022-09-02T07:00:01;6.97;;;3.28;;
70026;SDS011;57506;50.092;15.804;2022-09-02T07:02:29;10.00;;;3.28;;
70026;SDS011;57506;50.092;15.804;2022-09-02T07:04:54;5.30;;;2.27;;
70026;SDS011;57506;50.092;15.804;2022-09-02T07:07:36;5.75;;;2.60;;
70026;SDS011;57506;50.092;15.804;2022-09-02T07:10:04;5.20;;;2.90;;
70026;SDS011;57506;50.092;15.804;2022-09-02T07:12:32;5.63;;;2.63;;
70026;SDS011;57506;50.092;15.804;2022-09-02T07:14:59;7.22;;;2.72;;
70026;SDS011;57506;50.092;15.804;2022-09-02T07:17:24;8.57;;;2.67;;
70026;SDS011;57506;50.092;15.804;2022-09-02T07:19:50;9.93;;;2.50;;
70026;SDS011;57506;50.092;15.804;2022-09-02T07:22:16;5.45;;;2.50;;
70026;SDS011;57506;50.092;15.804;2022-09-02T07:24:42;7.43;;;2.57;;
70026;SDS011;57506;50.092;15.804;2022-09-02T07:27:09;5.88;;;2.38;;
70026;SDS011;57506;50.092;15.804;2022-09-02T07:29:35;5.68;;;2.35;;
70026;SDS011;57506;50.092;15.804;2022-09-02T07:32:01;7.20;;;2.43;;
70026;SDS011;57506;50.092;15.804;2022-09-02T07:34:26;10.32;;;3.30;;
70026;SDS011;57506;50.092;15.804;2022-09-02T07:36:53;12.93;;;2.15;;
70026;SDS011;57506;50.092;15.804;2022-09-02T07:39:18;6.97;;;2.60;;
70026;SDS011;57506;50.092;15.804;2022-09-02T07:41:45;7.10;;;2.00;;
70026;SDS011;57506;50.092;15.804;2022-09-02T07:44:12;4.38;;;2.00;;
70026;SDS011;57506;50.092;15.804;2022-09-02T07:46:38;7.43;;;2.00;;
70026;SDS011;57506;50.092;15.804;2022-09-02T07:49:06;5.57;;;1.65;;
70026;SDS011;57506;50.092;15.804;2022-09-02T07:51:33;6.25;;;2.00;;
70026;SDS011;57506;50.092;15.804;2022-09-02T07:54:00;5.07;;;1.50;;
70026;SDS011;57506;50.092;15.804;2022-09-02T07:56:27;3.72;;;1.50;;
70026;SDS011;57506;50.092;15.804;2022-09-02T07:58:53;5.22;;;1.58;;
70026;SDS011;57506;50.092;15.804;2022-09-02T08:01:19;4.37;;;1.40;;
70026;SDS011;57506;50.092;15.804;2022-09-02T08:03:45;4.85;;;1.45;;
70026;SDS011;57506;50.092;15.804;2022-09-02T08:06:11;4.47;;;1.20;;
70026;SDS011;57506;50.092;15.804;2022-09-02T08:08:37;5.15;;;1.52;;
70026;SDS011;57506;50.092;15.804;2022-09-02T08:11:04;3.40;;;1.23;;
70026;SDS011;57506;50.092;15.804;2022-09-02T08:13:30;4.30;;;1.25;;
70026;SDS011;57506;50.092;15.804;2022-09-02T08:15:57;4.63;;;1.30;;
70026;SDS011;57506;50.092;15.804;2022-09-02T08:18:59;3.17;;;0.95;;
70026;SDS011;57506;50.092;15.804;2022-09-02T08:21:25;5.35;;;1.00;;
70026;SDS011;57506;50.092;15.804;2022-09-02T08:23:51;3.77;;;1.00;;
70026;SDS011;57506;50.092;15.804;2022-09-02T08:26:16;4.27;;;0.97;;
70026;SDS011;57506;50.092;15.804;2022-09-02T08:28:43;4.80;;;1.10;;
70026;SDS011;57506;50.092;15.804;2022-09-02T08:31:09;4.38;;;1.00;;
70026;SDS011;57506;50.092;15.804;2022-09-02T08:33:44;3.08;;;0.80;;
70026;SDS011;57506;50.092;15.804;2022-09-02T08:36:09;3.30;;;0.83;;
70026;SDS011;57506;50.092;15.804;2022-09-02T08:38:38;4.43;;;0.90;;
70026;SDS011;57506;50.092;15.804;2022-09-02T08:41:19;3.50;;;0.97;;
70026;SDS011;57506;50.092;15.804;2022-09-02T08:43:45;5.63;;;0.93;;
70026;SDS011;57506;50.092;15.804;2022-09-02T08:46:13;11.75;;;1.20;;
70026;SDS011;57506;50.092;15.804;2022-09-02T08:48:49;4.30;;;0.82;;
70026;SDS011;57506;50.092;15.804;2022-09-02T08:51:20;5.55;;;0.95;;
70026;SDS011;57506;50.092;15.804;2022-09-02T08:54:19;4.53;;;0.93;;
70026;SDS011;57506;50.092;15.804;2022-09-02T08:56:50;4.30;;;0.90;;
70026;SDS011;57506;50.092;15.804;2022-09-02T08:59:17;3.63;;;0.80;;
70026;SDS011;57506;50.092;15.804;2022-09-02T09:07:08;4.97;;;0.80;;
70026;SDS011;57506;50.092;15.804;2022-09-02T09:18:07;3.38;;;0.70;;
70026;SDS011;57506;50.092;15.804;2022-09-02T09:20:39;4.10;;;0.70;;
70026;SDS011;57506;50.092;15.804;2022-09-02T09:23:18;2.53;;;0.70;;
70026;SDS011;57506;50.092;15.804;2022-09-02T09:25:52;4.85;;;0.65;;
70026;SDS011;57506;50.092;15.804;2022-09-02T09:28:25;3.08;;;0.60;;
70026;SDS011;57506;50.092;15.804;2022-09-02T09:30:51;3.05;;;0.70;;
70026;SDS011;57506;50.092;15.804;2022-09-02T09:33:17;6.70;;;1.00;;
70026;SDS011;57506;50.092;15.804;2022-09-02T09:35:50;4.18;;;0.75;;
70026;SDS011;57506;50.092;15.804;2022-09-02T09:38:26;2.80;;;0.80;;
70026;SDS011;57506;50.092;15.804;2022-09-02T09:41:10;3.73;;;0.70;;
70026;SDS011;57506;50.092;15.804;2022-09-02T09:43:38;4.10;;;1.17;;
70026;SDS011;57506;50.092;15.804;2022-09-02T09:48:51;2.53;;;0.60;;
70026;SDS011;57506;50.092;15.804;2022-09-02T09:51:17;3.70;;;0.80;;
70026;SDS011;57506;50.092;15.804;2022-09-02T09:53:43;3.38;;;0.82;;
70026;SDS011;57506;50.092;15.804;2022-09-02T10:08:56;2.50;;;0.70;;
70026;SDS011;57506;50.092;15.804;2022-09-02T10:13:57;5.95;;;0.95;;
70026;SDS011;57506;50.092;15.804;2022-09-02T10:27:15;2.70;;;0.70;;
70026;SDS011;57506;50.092;15.804;2022-09-02T10:30:05;4.15;;;0.70;;
70026;SDS011;57506;50.092;15.804;2022-09-02T10:41:15;5.75;;;0.88;;
70026;SDS011;57506;50.092;15.804;2022-09-02T10:46:57;5.07;;;0.70;;
70026;SDS011;57506;50.092;15.804;2022-09-02T11:02:31;3.50;;;0.60;;
70026;SDS011;57506;50.092;15.804;2022-09-02T11:08:09;2.63;;;0.68;;
70026;SDS011;57506;50.092;15.804;2022-09-02T11:10:48;3.45;;;0.60;;
70026;SDS011;57506;50.092;15.804;2022-09-02T11:24:25;3.47;;;0.70;;
70026;SDS011;57506;50.092;15.804;2022-09-02T11:27:23;4.32;;;0.70;;
70026;SDS011;57506;50.092;15.804;2022-09-02T11:30:38;3.15;;;0.70;;
70026;SDS011;57506;50.092;15.804;2022-09-02T11:36:01;4.57;;;1.20;;
70026;SDS011;57506;50.092;15.804;2022-09-02T11:43:54;5.60;;;1.60;;
70026;SDS011;57506;50.092;15.804;2022-09-02T11:54:39;3.13;;;0.82;;
70026;SDS011;57506;50.092;15.804;2022-09-02T11:57:22;2.78;;;0.90;;
70026;SDS011;57506;50.092;15.804;2022-09-02T12:02:34;3.80;;;0.90;;
70026;SDS011;57506;50.092;15.804;2022-09-02T12:07:54;3.83;;;1.10;;
70026;SDS011;57506;50.092;15.804;2022-09-02T12:21:22;5.03;;;1.00;;
70026;SDS011;57506;50.092;15.804;2022-09-02T12:26:16;3.47;;;1.10;;
70026;SDS011;57506;50.092;15.804;2022-09-02T12:28:50;3.47;;;0.75;;
70026;SDS011;57506;50.092;15.804;2022-09-02T12:34:53;3.07;;;0.83;;
70026;SDS011;57506;50.092;15.804;2022-09-02T12:47:45;2.83;;;0.85;;
70026;SDS011;57506;50.092;15.804;2022-09-02T12:58:55;4.15;;;0.77;;
70026;SDS011;57506;50.092;15.804;2022-09-02T13:01:32;3.63;;;0.98;;
70026;SDS011;57506;50.092;15.804;2022-09-02T13:04:09;2.70;;;0.80;;
70026;SDS011;57506;50.092;15.804;2022-09-02T13:09:53;2.38;;;0.65;;
70026;SDS011;57506;50.092;15.804;2022-09-02T13:12:55;4.45;;;1.20;;
70026;SDS011;57506;50.092;15.804;2022-09-02T13:18:33;4.15;;;0.68;;
70026;SDS011;57506;50.092;15.804;2022-09-02T13:30:15;6.22;;;0.82;;
70026;SDS011;57506;50.092;15.804;2022-09-02T13:32:59;13.30;;;1.20;;
70026;SDS011;57506;50.092;15.804;2022-09-02T13:35:30;2.70;;;0.90;;
70026;SDS011;57506;50.092;15.804;2022-09-02T13:38:00;2.80;;;0.90;;
70026;SDS011;57506;50.092;15.804;2022-09-02T13:40:27;3.10;;;0.85;;
70026;SDS011;57506;50.092;15.804;2022-09-02T13:43:21;2.85;;;0.63;;
70026;SDS011;57506;50.092;15.804;2022-09-02T13:45:48;4.28;;;1.02;;
70026;SDS011;57506;50.092;15.804;2022-09-02T13:50:43;5.07;;;0.90;;
70026;SDS011;57506;50.092;15.804;2022-09-02T13:55:59;3.53;;;0.98;;
70026;SDS011;57506;50.092;15.804;2022-09-02T14:00:57;3.20;;;1.40;;
70026;SDS011;57506;50.092;15.804;2022-09-02T14:03:44;3.47;;;0.90;;
70026;SDS011;57506;50.092;15.804;2022-09-02T14:06:12;4.97;;;0.95;;
70026;SDS011;57506;50.092;15.804;2022-09-02T14:08:39;6.00;;;1.10;;
70026;SDS011;57506;50.092;15.804;2022-09-02T14:11:05;5.40;;;0.95;;
70026;SDS011;57506;50.092;15.804;2022-09-02T14:13:32;3.00;;;0.90;;
70026;SDS011;57506;50.092;15.804;2022-09-02T14:21:49;3.90;;;0.70;;
70026;SDS011;57506;50.092;15.804;2022-09-02T14:24:20;4.40;;;0.80;;
70026;SDS011;57506;50.092;15.804;2022-09-02T14:26:52;2.97;;;0.80;;
70026;SDS011;57506;50.092;15.804;2022-09-02T14:29:22;7.07;;;0.93;;
70026;SDS011;57506;50.092;15.804;2022-09-02T14:34:38;3.00;;;0.90;;
70026;SDS011;57506;50.092;15.804;2022-09-02T14:40:14;4.77;;;1.00;;
70026;SDS011;57506;50.092;15.804;2022-09-02T14:42:46;3.80;;;0.90;;
70026;SDS011;57506;50.092;15.804;2022-09-02T14:45:13;7.95;;;1.00;;
70026;SDS011;57506;50.092;15.804;2022-09-02T14:47:52;2.90;;;0.90;;
70026;SDS011;57506;50.092;15.804;2022-09-02T14:50:20;3.42;;;0.90;;
70026;SDS011;57506;50.092;15.804;2022-09-02T14:52:49;4.80;;;0.80;;
70026;SDS011;57506;50.092;15.804;2022-09-02T14:58:22;3.78;;;1.10;;
70026;SDS011;57506;50.092;15.804;2022-09-02T15:00:50;6.28;;;1.30;;
70026;SDS011;57506;50.092;15.804;2022-09-02T15:03:17;3.38;;;1.10;;
70026;SDS011;57506;50.092;15.804;2022-09-02T15:05:44;3.43;;;0.80;;
70026;SDS011;57506;50.092;15.804;2022-09-02T15:08:10;4.25;;;1.20;;
70026;SDS011;57506;50.092;15.804;2022-09-02T15:10:36;5.97;;;1.15;;
70026;SDS011;57506;50.092;15.804;2022-09-02T15:13:10;10.13;;;1.20;;
70026;SDS011;57506;50.092;15.804;2022-09-02T15:15:38;3.87;;;1.00;;
70026;SDS011;57506;50.092;15.804;2022-09-02T15:18:04;2.50;;;0.75;;
70026;SDS011;57506;50.092;15.804;2022-09-02T15:20:30;3.10;;;0.90;;
70026;SDS011;57506;50.092;15.804;2022-09-02T15:22:56;3.70;;;1.00;;
70026;SDS011;57506;50.092;15.804;2022-09-02T15:25:23;5.53;;;1.13;;
70026;SDS011;57506;50.092;15.804;2022-09-02T15:27:48;5.65;;;0.90;;
70026;SDS011;57506;50.092;15.804;2022-09-02T15:30:14;4.27;;;1.00;;
70026;SDS011;57506;50.092;15.804;2022-09-02T15:32:42;3.88;;;1.20;;
70026;SDS011;57506;50.092;15.804;2022-09-02T15:35:09;4.25;;;1.13;;
70026;SDS011;57506;50.092;15.804;2022-09-02T15:37:35;3.73;;;1.20;;
70026;SDS011;57506;50.092;15.804;2022-09-02T15:40:05;5.78;;;1.20;;
70026;SDS011;57506;50.092;15.804;2022-09-02T15:42:32;4.28;;;0.90;;
70026;SDS011;57506;50.092;15.804;2022-09-02T15:45:02;5.20;;;1.05;;
70026;SDS011;57506;50.092;15.804;2022-09-02T15:47:35;4.97;;;0.80;;
70026;SDS011;57506;50.092;15.804;2022-09-02T15:50:02;2.87;;;1.00;;
70026;SDS011;57506;50.092;15.804;2022-09-02T15:52:32;4.35;;;0.85;;
70026;SDS011;57506;50.092;15.804;2022-09-02T15:54:59;3.33;;;0.80;;
70026;SDS011;57506;50.092;15.804;2022-09-02T15:57:24;4.00;;;0.90;;
70026;SDS011;57506;50.092;15.804;2022-09-02T15:59:50;3.05;;;0.90;;
70026;SDS011;57506;50.092;15.804;2022-09-02T16:02:15;3.73;;;1.03;;
70026;SDS011;57506;50.092;15.804;2022-09-02T16:04:41;3.80;;;0.90;;
70026;SDS011;57506;50.092;15.804;2022-09-02T16:07:07;3.77;;;0.93;;
70026;SDS011;57506;50.092;15.804;2022-09-02T16:09:32;4.00;;;1.00;;
70026;SDS011;57506;50.092;15.804;2022-09-02T16:11:58;2.90;;;0.90;;
70026;SDS011;57506;50.092;15.804;2022-09-02T16:14:24;6.22;;;1.30;;
70026;SDS011;57506;50.092;15.804;2022-09-02T16:16:50;3.85;;;1.20;;
70026;SDS011;57506;50.092;15.804;2022-09-02T16:19:18;5.63;;;1.20;;
70026;SDS011;57506;50.092;15.804;2022-09-02T16:21:50;6.10;;;1.07;;
70026;SDS011;57506;50.092;15.804;2022-09-02T16:24:16;5.68;;;1.00;;
70026;SDS011;57506;50.092;15.804;2022-09-02T16:26:44;3.45;;;0.98;;
70026;SDS011;57506;50.092;15.804;2022-09-02T16:29:10;4.60;;;1.10;;
70026;SDS011;57506;50.092;15.804;2022-09-02T16:31:42;4.97;;;1.20;;
70026;SDS011;57506;50.092;15.804;2022-09-02T16:34:10;4.57;;;1.60;;
70026;SDS011;57506;50.092;15.804;2022-09-02T16:36:38;5.10;;;1.30;;
70026;SDS011;57506;50.092;15.804;2022-09-02T16:39:06;3.70;;;1.00;;
70026;SDS011;57506;50.092;15.804;2022-09-02T16:44:01;3.97;;;1.00;;
70026;SDS011;57506;50.092;15.804;2022-09-02T16:46:31;4.10;;;1.48;;
70026;SDS011;57506;50.092;15.804;2022-09-02T16:48:58;3.63;;;1.10;;
70026;SDS011;57506;50.092;15.804;2022-09-02T16:51:24;4.83;;;1.47;;
70026;SDS011;57506;50.092;15.804;2022-09-02T16:53:53;5.15;;;1.33;;
70026;SDS011;57506;50.092;15.804;2022-09-02T16:56:20;5.07;;;1.10;;
70026;SDS011;57506;50.092;15.804;2022-09-02T16:58:47;5.75;;;1.20;;
70026;SDS011;57506;50.092;15.804;2022-09-02T17:01:13;5.47;;;1.03;;
70026;SDS011;57506;50.092;15.804;2022-09-02T17:03:39;3.40;;;1.10;;
70026;SDS011;57506;50.092;15.804;2022-09-02T17:06:06;5.55;;;1.05;;
70026;SDS011;57506;50.092;15.804;2022-09-02T17:08:33;2.70;;;0.90;;
70026;SDS011;57506;50.092;15.804;2022-09-02T17:13:50;9.55;;;1.40;;
70026;SDS011;57506;50.092;15.804;2022-09-02T17:16:18;4.60;;;0.93;;
70026;SDS011;57506;50.092;15.804;2022-09-02T17:18:45;4.47;;;1.00;;
70026;SDS011;57506;50.092;15.804;2022-09-02T17:21:30;3.90;;;1.20;;
70026;SDS011;57506;50.092;15.804;2022-09-02T17:24:09;4.03;;;0.83;;
70026;SDS011;57506;50.092;15.804;2022-09-02T17:26:37;4.63;;;0.90;;
70026;SDS011;57506;50.092;15.804;2022-09-02T17:29:14;3.40;;;1.10;;
70026;SDS011;57506;50.092;15.804;2022-09-02T17:31:42;3.72;;;1.02;;
70026;SDS011;57506;50.092;15.804;2022-09-02T17:34:08;3.33;;;0.90;;
70026;SDS011;57506;50.092;15.804;2022-09-02T17:36:36;3.47;;;0.80;;
70026;SDS011;57506;50.092;15.804;2022-09-02T17:39:05;3.60;;;1.00;;
70026;SDS011;57506;50.092;15.804;2022-09-02T17:41:35;4.57;;;1.00;;
70026;SDS011;57506;50.092;15.804;2022-09-02T17:44:24;3.75;;;0.93;;
70026;SDS011;57506;50.092;15.804;2022-09-02T17:46:52;3.63;;;0.93;;
70026;SDS011;57506;50.092;15.804;2022-09-02T17:49:19;3.43;;;1.00;;
70026;SDS011;57506;50.092;15.804;2022-09-02T17:51:45;6.53;;;1.10;;
70026;SDS011;57506;50.092;15.804;2022-09-02T17:54:12;4.65;;;1.00;;
70026;SDS011;57506;50.092;15.804;2022-09-02T18:08:30;3.08;;;1.00;;